Klang, Malaysia
Current Conditions -  °F | °C
As of 8:00 PM on Thursday 29 Jan 2015 (Local Time) from WMSA Reporting Station
Broken Clouds Broken Clouds  
Wind Chill: 79°   Ceiling: 28000
Heat Index: 82°   Visibility: 5mi
Dew Point: 73°   Wind: 1mph
Humidity: 83%   Direction: 70°ENE
Pressure: 29.85"   Gusts: NA
Location:  3.04°N, 101.45°E
Report Text: WMSA 291200Z 07001KT 8000 FEW017CB SCT140 BKN280 26/23 Q1011
Loading
Personal Weather Stations






























Interactive Weather Map New forecast layout! Learn more

10-Day Weather Forecast

Advertisements
Track Severe Weather on mobile